sensor_id;sensor_type;location;lat;lon;timestamp;pressure;altitude;pressure_sealevel;temperature;humidity
68456;BME280;55437;55.046;38.838;2022-08-21T00:01:05;100882.81;;;15.17;53.64
68456;BME280;55437;55.046;38.838;2022-08-21T00:03:32;100887.25;;;15.13;53.78
68456;BME280;55437;55.046;38.838;2022-08-21T00:05:58;100885.56;;;15.12;53.92
68456;BME280;55437;55.046;38.838;2022-08-21T00:08:24;100891.63;;;15.11;53.86
68456;BME280;55437;55.046;38.838;2022-08-21T00:10:50;100889.09;;;15.10;53.93
68456;BME280;55437;55.046;38.838;2022-08-21T00:13:17;100891.16;;;15.00;54.18
68456;BME280;55437;55.046;38.838;2022-08-21T00:15:45;100890.16;;;15.04;54.15
68456;BME280;55437;55.046;38.838;2022-08-21T00:18:11;100892.66;;;15.07;53.98
68456;BME280;55437;55.046;38.838;2022-08-21T00:20:39;100885.88;;;15.03;54.11
68456;BME280;55437;55.046;38.838;2022-08-21T00:23:05;100884.19;;;15.02;54.23
68456;BME280;55437;55.046;38.838;2022-08-21T00:25:32;100888.59;;;14.99;54.37
68456;BME280;55437;55.046;38.838;2022-08-21T00:27:58;100882.00;;;14.90;54.60
68456;BME280;55437;55.046;38.838;2022-08-21T00:30:26;100888.16;;;14.86;54.78
68456;BME280;55437;55.046;38.838;2022-08-21T00:32:53;100890.88;;;14.83;54.88
68456;BME280;55437;55.046;38.838;2022-08-21T00:35:25;100890.97;;;14.80;54.99
68456;BME280;55437;55.046;38.838;2022-08-21T00:37:53;100883.22;;;14.80;54.91
68456;BME280;55437;55.046;38.838;2022-08-21T00:40:24;100885.09;;;14.75;55.18
68456;BME280;55437;55.046;38.838;2022-08-21T00:42:51;100881.72;;;14.73;55.10
68456;BME280;55437;55.046;38.838;2022-08-21T00:45:18;100892.06;;;14.73;55.12
68456;BME280;55437;55.046;38.838;2022-08-21T00:47:44;100892.34;;;14.64;55.46
68456;BME280;55437;55.046;38.838;2022-08-21T00:50:11;100877.78;;;14.61;55.65
68456;BME280;55437;55.046;38.838;2022-08-21T00:52:38;100883.16;;;14.55;55.81
68456;BME280;55437;55.046;38.838;2022-08-21T00:55:07;100879.09;;;14.48;56.02
68456;BME280;55437;55.046;38.838;2022-08-21T00:57:43;100880.81;;;14.48;56.00
68456;BME280;55437;55.046;38.838;2022-08-21T01:00:14;100881.78;;;14.44;56.31
68456;BME280;55437;55.046;38.838;2022-08-21T01:02:43;100878.50;;;14.37;56.21
68456;BME280;55437;55.046;38.838;2022-08-21T01:05:10;100884.63;;;14.34;56.45
68456;BME280;55437;55.046;38.838;2022-08-21T01:07:36;100882.13;;;14.31;56.65
68456;BME280;55437;55.046;38.838;2022-08-21T01:10:05;100877.00;;;14.30;56.58
68456;BME280;55437;55.046;38.838;2022-08-21T01:12:32;100882.09;;;14.33;56.56
68456;BME280;55437;55.046;38.838;2022-08-21T01:14:58;100883.69;;;14.37;56.31
68456;BME280;55437;55.046;38.838;2022-08-21T01:17:24;100896.59;;;14.37;56.50
68456;BME280;55437;55.046;38.838;2022-08-21T01:19:52;100883.56;;;14.41;56.34
68456;BME280;55437;55.046;38.838;2022-08-21T01:22:18;100890.41;;;14.44;56.26
68456;BME280;55437;55.046;38.838;2022-08-21T01:24:44;100891.94;;;14.50;56.07
68456;BME280;55437;55.046;38.838;2022-08-21T01:27:10;100895.44;;;14.49;55.91
68456;BME280;55437;55.046;38.838;2022-08-21T01:29:46;100896.19;;;14.51;55.99
68456;BME280;55437;55.046;38.838;2022-08-21T01:32:18;100896.31;;;14.48;56.01
68456;BME280;55437;55.046;38.838;2022-08-21T01:34:45;100893.03;;;14.43;55.90
68456;BME280;55437;55.046;38.838;2022-08-21T01:37:13;100900.88;;;14.38;56.22
68456;BME280;55437;55.046;38.838;2022-08-21T01:39:40;100891.59;;;14.32;56.29
68456;BME280;55437;55.046;38.838;2022-08-21T01:42:07;100893.44;;;14.27;56.53
68456;BME280;55437;55.046;38.838;2022-08-21T01:44:33;100890.06;;;14.25;56.64
68456;BME280;55437;55.046;38.838;2022-08-21T01:47:03;100886.72;;;14.23;56.44
68456;BME280;55437;55.046;38.838;2022-08-21T01:49:29;100890.13;;;14.24;56.54
68456;BME280;55437;55.046;38.838;2022-08-21T01:51:55;100888.31;;;14.26;56.77
68456;BME280;55437;55.046;38.838;2022-08-21T01:54:21;100890.22;;;14.21;56.65
68456;BME280;55437;55.046;38.838;2022-08-21T01:56:49;100888.53;;;14.20;56.75
68456;BME280;55437;55.046;38.838;2022-08-21T01:59:15;100892.81;;;14.21;56.81
68456;BME280;55437;55.046;38.838;2022-08-21T02:01:41;100891.06;;;14.21;56.87
68456;BME280;55437;55.046;38.838;2022-08-21T02:04:09;100896.16;;;14.24;56.69
68456;BME280;55437;55.046;38.838;2022-08-21T02:06:35;100893.56;;;14.24;56.66
68456;BME280;55437;55.046;38.838;2022-08-21T02:09:06;100889.25;;;14.25;56.69
68456;BME280;55437;55.046;38.838;2022-08-21T02:11:34;100886.59;;;14.26;56.70
68456;BME280;55437;55.046;38.838;2022-08-21T02:14:00;100893.44;;;14.27;56.53
68456;BME280;55437;55.046;38.838;2022-08-21T02:16:26;100888.19;;;14.30;56.69
68456;BME280;55437;55.046;38.838;2022-08-21T02:18:52;100888.84;;;14.37;56.29
68456;BME280;55437;55.046;38.838;2022-08-21T02:21:18;100885.22;;;14.44;56.26
68456;BME280;55437;55.046;38.838;2022-08-21T02:23:44;100894.50;;;14.50;56.00
68456;BME280;55437;55.046;38.838;2022-08-21T02:26:12;100892.16;;;14.70;55.41
68456;BME280;55437;55.046;38.838;2022-08-21T02:28:38;100883.66;;;14.93;55.00
68456;BME280;55437;55.046;38.838;2022-08-21T02:31:04;100891.53;;;15.14;54.44
68456;BME280;55437;55.046;38.838;2022-08-21T02:33:30;100888.81;;;15.19;54.20
68456;BME280;55437;55.046;38.838;2022-08-21T02:35:56;100892.28;;;15.18;54.02
68456;BME280;55437;55.046;38.838;2022-08-21T02:38:26;100895.41;;;15.28;53.93
68456;BME280;55437;55.046;38.838;2022-08-21T02:40:53;100885.00;;;15.29;53.73
68456;BME280;55437;55.046;38.838;2022-08-21T02:43:21;100887.59;;;15.29;53.67
68456;BME280;55437;55.046;38.838;2022-08-21T02:45:48;100875.91;;;15.18;53.68
68456;BME280;55437;55.046;38.838;2022-08-21T02:48:20;100884.72;;;15.12;53.78
68456;BME280;55437;55.046;38.838;2022-08-21T02:50:48;100892.22;;;15.20;53.55
68456;BME280;55437;55.046;38.838;2022-08-21T02:53:16;100882.56;;;15.25;53.52
68456;BME280;55437;55.046;38.838;2022-08-21T02:55:44;100889.53;;;15.23;53.52
68456;BME280;55437;55.046;38.838;2022-08-21T02:58:10;100892.84;;;15.26;53.29
68456;BME280;55437;55.046;38.838;2022-08-21T03:00:37;100888.69;;;15.22;53.30
68456;BME280;55437;55.046;38.838;2022-08-21T03:03:03;100901.19;;;15.34;53.25
68456;BME280;55437;55.046;38.838;2022-08-21T03:05:31;100900.66;;;15.49;52.79
68456;BME280;55437;55.046;38.838;2022-08-21T03:08:00;100903.94;;;15.56;52.82
68456;BME280;55437;55.046;38.838;2022-08-21T03:10:26;100903.03;;;15.57;52.56
68456;BME280;55437;55.046;38.838;2022-08-21T03:12:53;100906.19;;;15.65;52.55
68456;BME280;55437;55.046;38.838;2022-08-21T03:15:21;100904.84;;;15.78;52.33
68456;BME280;55437;55.046;38.838;2022-08-21T03:17:50;100903.91;;;15.81;52.22
68456;BME280;55437;55.046;38.838;2022-08-21T03:20:22;100902.59;;;15.93;52.28
68456;BME280;55437;55.046;38.838;2022-08-21T03:22:50;100903.25;;;15.98;52.04
68456;BME280;55437;55.046;38.838;2022-08-21T03:25:18;100904.44;;;15.89;51.93
68456;BME280;55437;55.046;38.838;2022-08-21T03:27:44;100906.88;;;15.94;51.90
68456;BME280;55437;55.046;38.838;2022-08-21T03:30:11;100912.13;;;15.92;52.04
68456;BME280;55437;55.046;38.838;2022-08-21T03:32:37;100900.63;;;15.99;51.78
68456;BME280;55437;55.046;38.838;2022-08-21T03:35:03;100905.63;;;16.04;51.78
68456;BME280;55437;55.046;38.838;2022-08-21T03:37:30;100913.00;;;16.14;51.70
68456;BME280;55437;55.046;38.838;2022-08-21T03:39:56;100911.69;;;16.26;51.30
68456;BME280;55437;55.046;38.838;2022-08-21T03:42:22;100907.03;;;16.34;51.11
68456;BME280;55437;55.046;38.838;2022-08-21T03:44:48;100910.97;;;16.44;51.05
68456;BME280;55437;55.046;38.838;2022-08-21T03:47:14;100903.75;;;16.52;50.93
68456;BME280;55437;55.046;38.838;2022-08-21T03:49:40;100912.38;;;16.53;50.69
68456;BME280;55437;55.046;38.838;2022-08-21T03:52:06;100906.94;;;16.59;50.54
68456;BME280;55437;55.046;38.838;2022-08-21T03:54:32;100906.38;;;16.74;50.27
68456;BME280;55437;55.046;38.838;2022-08-21T03:56:58;100915.50;;;16.83;50.38
68456;BME280;55437;55.046;38.838;2022-08-21T03:59:24;100911.28;;;16.80;50.48
68456;BME280;55437;55.046;38.838;2022-08-21T04:01:58;100909.59;;;16.79;50.46
68456;BME280;55437;55.046;38.838;2022-08-21T04:04:24;100904.00;;;16.68;50.58
68456;BME280;55437;55.046;38.838;2022-08-21T04:06:50;100899.66;;;16.69;50.75
68456;BME280;55437;55.046;38.838;2022-08-21T04:09:17;100895.25;;;16.71;50.83
68456;BME280;55437;55.046;38.838;2022-08-21T04:11:43;100898.25;;;16.82;50.55
68456;BME280;55437;55.046;38.838;2022-08-21T04:14:08;100908.91;;;16.96;50.50
68456;BME280;55437;55.046;38.838;2022-08-21T04:16:34;100896.84;;;16.95;50.31
68456;BME280;55437;55.046;38.838;2022-08-21T04:19:00;100902.66;;;17.02;50.20
68456;BME280;55437;55.046;38.838;2022-08-21T04:21:26;100893.53;;;16.91;50.34
68456;BME280;55437;55.046;38.838;2022-08-21T04:23:54;100897.88;;;16.91;50.51
68456;BME280;55437;55.046;38.838;2022-08-21T04:26:20;100896.34;;;16.87;50.49
68456;BME280;55437;55.046;38.838;2022-08-21T04:28:46;100900.63;;;16.88;50.72
68456;BME280;55437;55.046;38.838;2022-08-21T04:31:12;100905.19;;;16.81;50.63
68456;BME280;55437;55.046;38.838;2022-08-21T04:33:38;100901.91;;;16.78;50.87
68456;BME280;55437;55.046;38.838;2022-08-21T04:36:05;100910.00;;;16.90;50.58
68456;BME280;55437;55.046;38.838;2022-08-21T04:38:32;100916.59;;;16.99;50.60
68456;BME280;55437;55.046;38.838;2022-08-21T04:40:58;100913.03;;;17.22;50.15
68456;BME280;55437;55.046;38.838;2022-08-21T04:43:24;100908.78;;;17.40;49.78
68456;BME280;55437;55.046;38.838;2022-08-21T04:45:51;100918.34;;;17.59;49.45
68456;BME280;55437;55.046;38.838;2022-08-21T04:48:20;100906.94;;;17.82;49.13
68456;BME280;55437;55.046;38.838;2022-08-21T04:51:12;100913.84;;;18.02;48.87
68456;BME280;55437;55.046;38.838;2022-08-21T04:53:45;100907.44;;;18.28;47.83
68456;BME280;55437;55.046;38.838;2022-08-21T04:56:25;100901.53;;;18.43;47.51
68456;BME280;55437;55.046;38.838;2022-08-21T04:58:57;100901.94;;;18.89;46.51
68456;BME280;55437;55.046;38.838;2022-08-21T05:01:25;100906.53;;;19.53;45.54
68456;BME280;55437;55.046;38.838;2022-08-21T05:03:56;100902.81;;;20.05;44.58
68456;BME280;55437;55.046;38.838;2022-08-21T05:06:24;100904.94;;;20.30;43.84
68456;BME280;55437;55.046;38.838;2022-08-21T05:08:53;100895.97;;;20.52;43.36
68456;BME280;55437;55.046;38.838;2022-08-21T05:11:20;100897.19;;;20.60;42.79
68456;BME280;55437;55.046;38.838;2022-08-21T05:13:48;100892.38;;;20.68;42.69
68456;BME280;55437;55.046;38.838;2022-08-21T05:16:14;100890.41;;;21.02;42.04
68456;BME280;55437;55.046;38.838;2022-08-21T05:18:42;100891.56;;;21.42;41.58
68456;BME280;55437;55.046;38.838;2022-08-21T05:21:10;100899.03;;;21.48;41.49
68456;BME280;55437;55.046;38.838;2022-08-21T05:23:40;100898.63;;;21.40;41.14
68456;BME280;55437;55.046;38.838;2022-08-21T05:26:06;100898.34;;;21.30;41.10
68456;BME280;55437;55.046;38.838;2022-08-21T05:28:31;100905.63;;;21.39;41.20
68456;BME280;55437;55.046;38.838;2022-08-21T05:30:57;100894.84;;;21.60;40.55
68456;BME280;55437;55.046;38.838;2022-08-21T05:33:23;100893.28;;;21.98;39.84
68456;BME280;55437;55.046;38.838;2022-08-21T05:35:51;100894.91;;;22.42;38.89
68456;BME280;55437;55.046;38.838;2022-08-21T05:38:18;100901.50;;;22.74;38.03
68456;BME280;55437;55.046;38.838;2022-08-21T05:40:44;100896.25;;;23.01;36.79
68456;BME280;55437;55.046;38.838;2022-08-21T05:43:10;100889.31;;;23.52;35.94
68456;BME280;55437;55.046;38.838;2022-08-21T05:45:36;100890.34;;;24.24;34.77
68456;BME280;55437;55.046;38.838;2022-08-21T05:48:13;100895.00;;;24.80;33.45
68456;BME280;55437;55.046;38.838;2022-08-21T05:50:49;100893.00;;;25.40;32.48
68456;BME280;55437;55.046;38.838;2022-08-21T05:53:17;100890.28;;;25.75;31.72
68456;BME280;55437;55.046;38.838;2022-08-21T05:55:44;100896.78;;;26.37;30.60
68456;BME280;55437;55.046;38.838;2022-08-21T05:58:11;100890.56;;;26.70;29.83
68456;BME280;55437;55.046;38.838;2022-08-21T06:00:37;100902.47;;;26.85;28.91
68456;BME280;55437;55.046;38.838;2022-08-21T06:03:02;100898.88;;;26.86;28.71
68456;BME280;55437;55.046;38.838;2022-08-21T06:05:28;100892.59;;;27.40;27.97
68456;BME280;55437;55.046;38.838;2022-08-21T06:07:54;100899.16;;;27.55;28.17
68456;BME280;55437;55.046;38.838;2022-08-21T06:10:20;100890.31;;;27.56;27.80
68456;BME280;55437;55.046;38.838;2022-08-21T06:12:46;100890.41;;;27.54;27.64
68456;BME280;55437;55.046;38.838;2022-08-21T06:15:12;100887.06;;;27.73;27.32
68456;BME280;55437;55.046;38.838;2022-08-21T06:17:37;100896.47;;;27.66;27.13
68456;BME280;55437;55.046;38.838;2022-08-21T06:20:04;100894.13;;;28.13;26.67
68456;BME280;55437;55.046;38.838;2022-08-21T06:22:30;100882.22;;;28.38;26.49
68456;BME280;55437;55.046;38.838;2022-08-21T06:24:55;100884.03;;;28.56;26.27
68456;BME280;55437;55.046;38.838;2022-08-21T06:27:21;100885.66;;;28.19;25.61
68456;BME280;55437;55.046;38.838;2022-08-21T06:29:47;100890.91;;;28.09;25.72
68456;BME280;55437;55.046;38.838;2022-08-21T06:32:13;100890.69;;;28.41;25.65
68456;BME280;55437;55.046;38.838;2022-08-21T06:34:40;100884.59;;;28.70;25.44
68456;BME280;55437;55.046;38.838;2022-08-21T06:37:06;100878.66;;;29.24;24.63
68456;BME280;55437;55.046;38.838;2022-08-21T06:39:33;100879.06;;;29.29;24.35
68456;BME280;55437;55.046;38.838;2022-08-21T06:41:59;100878.94;;;29.30;24.11
68456;BME280;55437;55.046;38.838;2022-08-21T06:44:29;100870.34;;;29.19;23.85
68456;BME280;55437;55.046;38.838;2022-08-21T06:46:56;100870.38;;;29.09;24.12
68456;BME280;55437;55.046;38.838;2022-08-21T06:49:22;100874.72;;;28.43;23.78
68456;BME280;55437;55.046;38.838;2022-08-21T06:51:48;100867.91;;;28.79;24.25
68456;BME280;55437;55.046;38.838;2022-08-21T06:54:13;100867.09;;;29.25;23.79
68456;BME280;55437;55.046;38.838;2022-08-21T06:56:39;100871.06;;;29.58;23.10
68456;BME280;55437;55.046;38.838;2022-08-21T06:59:05;100864.97;;;29.75;22.79
68456;BME280;55437;55.046;38.838;2022-08-21T07:01:31;100879.66;;;29.69;22.39
68456;BME280;55437;55.046;38.838;2022-08-21T07:03:58;100878.75;;;29.79;22.52
68456;BME280;55437;55.046;38.838;2022-08-21T07:06:24;100858.94;;;29.18;22.41
68456;BME280;55437;55.046;38.838;2022-08-21T07:08:50;100876.00;;;29.24;22.40
68456;BME280;55437;55.046;38.838;2022-08-21T07:11:21;100859.63;;;29.20;22.42
68456;BME280;55437;55.046;38.838;2022-08-21T07:13:47;100873.25;;;29.62;22.62
68456;BME280;55437;55.046;38.838;2022-08-21T07:16:13;100869.41;;;29.57;22.30
68456;BME280;55437;55.046;38.838;2022-08-21T07:18:39;100869.25;;;30.13;22.17
68456;BME280;55437;55.046;38.838;2022-08-21T07:21:07;100871.13;;;30.03;21.60
68456;BME280;55437;55.046;38.838;2022-08-21T07:23:46;100867.63;;;29.75;21.85
68456;BME280;55437;55.046;38.838;2022-08-21T07:26:14;100870.66;;;30.07;21.59
68456;BME280;55437;55.046;38.838;2022-08-21T07:28:40;100865.78;;;30.30;21.46
68456;BME280;55437;55.046;38.838;2022-08-21T07:31:06;100866.63;;;30.31;20.56
68456;BME280;55437;55.046;38.838;2022-08-21T07:33:35;100863.78;;;30.32;20.61
68456;BME280;55437;55.046;38.838;2022-08-21T07:36:01;100863.34;;;30.37;20.46
68456;BME280;55437;55.046;38.838;2022-08-21T07:38:30;100860.84;;;30.71;20.96
68456;BME280;55437;55.046;38.838;2022-08-21T07:40:57;100868.88;;;30.61;20.52
68456;BME280;55437;55.046;38.838;2022-08-21T07:43:43;100854.81;;;30.43;20.67
68456;BME280;55437;55.046;38.838;2022-08-21T07:46:09;100859.56;;;29.40;21.05
68456;BME280;55437;55.046;38.838;2022-08-21T07:48:36;100851.75;;;28.91;21.51
68456;BME280;55437;55.046;38.838;2022-08-21T07:51:07;100834.97;;;28.25;21.81
68456;BME280;55437;55.046;38.838;2022-08-21T07:53:34;100832.63;;;27.91;22.40
68456;BME280;55437;55.046;38.838;2022-08-21T07:56:00;100837.53;;;27.96;22.55
68456;BME280;55437;55.046;38.838;2022-08-21T07:58:26;100835.22;;;28.31;22.25
68456;BME280;55437;55.046;38.838;2022-08-21T08:00:51;100819.06;;;28.54;22.19
68456;BME280;55437;55.046;38.838;2022-08-21T08:03:22;100816.97;;;28.86;21.91
68456;BME280;55437;55.046;38.838;2022-08-21T08:05:47;100815.06;;;29.16;21.75
68456;BME280;55437;55.046;38.838;2022-08-21T08:08:13;100816.69;;;29.26;21.37
68456;BME280;55437;55.046;38.838;2022-08-21T08:10:39;100820.56;;;29.69;20.66
68456;BME280;55437;55.046;38.838;2022-08-21T08:13:06;100816.28;;;29.31;20.11
68456;BME280;55437;55.046;38.838;2022-08-21T08:15:31;100814.03;;;29.46;20.40
68456;BME280;55437;55.046;38.838;2022-08-21T08:17:57;100808.81;;;29.54;19.86
68456;BME280;55437;55.046;38.838;2022-08-21T08:20:24;100813.78;;;29.29;20.34
68456;BME280;55437;55.046;38.838;2022-08-21T08:22:53;100807.94;;;29.26;20.08
68456;BME280;55437;55.046;38.838;2022-08-21T08:25:20;100807.47;;;29.40;19.75
68456;BME280;55437;55.046;38.838;2022-08-21T08:27:46;100825.97;;;29.50;19.54
68456;BME280;55437;55.046;38.838;2022-08-21T08:30:17;100814.78;;;29.19;19.57
68456;BME280;55437;55.046;38.838;2022-08-21T08:32:43;100831.19;;;29.32;19.60
68456;BME280;55437;55.046;38.838;2022-08-21T08:35:35;100812.72;;;29.13;19.69
68456;BME280;55437;55.046;38.838;2022-08-21T08:38:01;100826.41;;;28.89;20.09
68456;BME280;55437;55.046;38.838;2022-08-21T08:43:28;100795.31;;;28.44;20.31
68456;BME280;55437;55.046;38.838;2022-08-21T08:45:57;100802.22;;;28.16;21.34
68456;BME280;55437;55.046;38.838;2022-08-21T08:48:48;100806.34;;;27.80;21.64
68456;BME280;55437;55.046;38.838;2022-08-21T08:51:33;100802.84;;;27.30;22.01
68456;BME280;55437;55.046;38.838;2022-08-21T08:54:06;100804.91;;;27.17;22.28
68456;BME280;55437;55.046;38.838;2022-08-21T08:56:34;100799.97;;;27.03;22.18
68456;BME280;55437;55.046;38.838;2022-08-21T08:59:23;100806.50;;;26.87;22.72
68456;BME280;55437;55.046;38.838;2022-08-21T09:01:52;100801.81;;;26.91;22.86
68456;BME280;55437;55.046;38.838;2022-08-21T09:04:22;100815.69;;;26.93;22.46
68456;BME280;55437;55.046;38.838;2022-08-21T09:12:12;100810.88;;;26.77;22.68
68456;BME280;55437;55.046;38.838;2022-08-21T09:28:38;100805.28;;;27.12;23.53
68456;BME280;55437;55.046;38.838;2022-08-21T09:31:30;100808.75;;;27.13;23.44
68456;BME280;55437;55.046;38.838;2022-08-21T09:34:03;100798.84;;;27.05;22.97
68456;BME280;55437;55.046;38.838;2022-08-21T09:39:04;100802.53;;;26.93;24.14
68456;BME280;55437;55.046;38.838;2022-08-21T09:41:32;100801.91;;;27.01;24.23
68456;BME280;55437;55.046;38.838;2022-08-21T09:43:59;100796.91;;;26.86;24.23
68456;BME280;55437;55.046;38.838;2022-08-21T09:46:26;100804.78;;;26.77;24.35
68456;BME280;55437;55.046;38.838;2022-08-21T09:48:55;100799.03;;;26.72;25.11
68456;BME280;55437;55.046;38.838;2022-08-21T09:51:25;100807.06;;;26.70;24.20
68456;BME280;55437;55.046;38.838;2022-08-21T09:53:58;100804.84;;;26.66;24.29
68456;BME280;55437;55.046;38.838;2022-08-21T10:00:32;100800.06;;;26.39;24.06
68456;BME280;55437;55.046;38.838;2022-08-21T10:03:14;100805.38;;;26.28;24.19
68456;BME280;55437;55.046;38.838;2022-08-21T10:05:50;100803.81;;;26.25;24.32
68456;BME280;55437;55.046;38.838;2022-08-21T10:08:21;100804.44;;;26.29;24.31
68456;BME280;55437;55.046;38.838;2022-08-21T10:10:57;100797.50;;;26.28;24.86
68456;BME280;55437;55.046;38.838;2022-08-21T10:13:53;100802.00;;;26.26;24.45
68456;BME280;55437;55.046;38.838;2022-08-21T10:22:45;100796.47;;;26.40;24.49
68456;BME280;55437;55.046;38.838;2022-08-21T10:25:28;100793.31;;;26.46;24.46
68456;BME280;55437;55.046;38.838;2022-08-21T10:31:02;100788.75;;;26.48;24.79
68456;BME280;55437;55.046;38.838;2022-08-21T10:36:21;100780.97;;;26.46;24.12
68456;BME280;55437;55.046;38.838;2022-08-21T10:41:37;100774.03;;;26.45;23.65
68456;BME280;55437;55.046;38.838;2022-08-21T10:44:25;100773.09;;;26.46;23.53
68456;BME280;55437;55.046;38.838;2022-08-21T10:47:22;100774.00;;;26.57;23.95
68456;BME280;55437;55.046;38.838;2022-08-21T10:55:43;100774.50;;;26.92;23.71
68456;BME280;55437;55.046;38.838;2022-08-21T10:58:14;100781.06;;;26.98;23.32
68456;BME280;55437;55.046;38.838;2022-08-21T11:00:47;100770.25;;;27.01;23.40
68456;BME280;55437;55.046;38.838;2022-08-21T11:03:32;100773.06;;;27.09;23.43
68456;BME280;55437;55.046;38.838;2022-08-21T11:06:13;100777.16;;;27.22;23.82
68456;BME280;55437;55.046;38.838;2022-08-21T11:08:46;100772.56;;;27.24;23.41
68456;BME280;55437;55.046;38.838;2022-08-21T11:11:22;100781.06;;;27.28;23.12
68456;BME280;55437;55.046;38.838;2022-08-21T11:13:55;100784.19;;;27.12;22.88
68456;BME280;55437;55.046;38.838;2022-08-21T11:19:24;100777.38;;;26.89;22.12
68456;BME280;55437;55.046;38.838;2022-08-21T11:22:16;100782.06;;;26.85;22.15
68456;BME280;55437;55.046;38.838;2022-08-21T11:24:57;100776.16;;;26.72;22.34
68456;BME280;55437;55.046;38.838;2022-08-21T11:27:42;100776.41;;;26.69;22.47
68456;BME280;55437;55.046;38.838;2022-08-21T11:30:10;100776.28;;;26.71;22.40
68456;BME280;55437;55.046;38.838;2022-08-21T11:32:53;100772.69;;;26.72;23.19
68456;BME280;55437;55.046;38.838;2022-08-21T11:40:49;100767.50;;;26.61;23.22
68456;BME280;55437;55.046;38.838;2022-08-21T11:50:42;100759.84;;;26.58;22.82
68456;BME280;55437;55.046;38.838;2022-08-21T11:53:14;100756.53;;;26.56;22.89
68456;BME280;55437;55.046;38.838;2022-08-21T11:55:55;100756.72;;;26.64;22.88
68456;BME280;55437;55.046;38.838;2022-08-21T11:58:48;100755.03;;;26.63;23.11
68456;BME280;55437;55.046;38.838;2022-08-21T12:01:19;100759.34;;;26.64;23.09
68456;BME280;55437;55.046;38.838;2022-08-21T12:04:16;100753.41;;;26.71;23.12
68456;BME280;55437;55.046;38.838;2022-08-21T12:06:43;100746.38;;;26.81;23.52
68456;BME280;55437;55.046;38.838;2022-08-21T12:09:33;100757.00;;;26.91;23.19
68456;BME280;55437;55.046;38.838;2022-08-21T12:12:26;100757.00;;;26.91;23.14
68456;BME280;55437;55.046;38.838;2022-08-21T12:25:59;100756.31;;;26.89;22.26
68456;BME280;55437;55.046;38.838;2022-08-21T12:28:27;100742.59;;;26.95;22.46
68456;BME280;55437;55.046;38.838;2022-08-21T12:30:57;100744.88;;;27.00;22.21
68456;BME280;55437;55.046;38.838;2022-08-21T12:33:38;100744.03;;;26.99;22.30
68456;BME280;55437;55.046;38.838;2022-08-21T12:36:11;100735.53;;;26.96;22.13
68456;BME280;55437;55.046;38.838;2022-08-21T12:39:01;100738.94;;;26.86;22.17
68456;BME280;55437;55.046;38.838;2022-08-21T12:41:49;100746.25;;;26.83;22.23
68456;BME280;55437;55.046;38.838;2022-08-21T12:44:21;100741.97;;;26.82;22.25
68456;BME280;55437;55.046;38.838;2022-08-21T12:46:58;100740.69;;;26.76;22.41
68456;BME280;55437;55.046;38.838;2022-08-21T12:49:40;100743.59;;;26.73;22.26
68456;BME280;55437;55.046;38.838;2022-08-21T12:54:54;100725.41;;;26.70;22.57
68456;BME280;55437;55.046;38.838;2022-08-21T12:57:44;100758.50;;;26.63;22.48
68456;BME280;55437;55.046;38.838;2022-08-21T13:00:12;100727.28;;;26.59;22.30
68456;BME280;55437;55.046;38.838;2022-08-21T13:02:44;100738.78;;;26.58;22.48
68456;BME280;55437;55.046;38.838;2022-08-21T13:05:22;100727.03;;;26.62;22.42
68456;BME280;55437;55.046;38.838;2022-08-21T13:07:50;100723.88;;;26.68;22.37
68456;BME280;55437;55.046;38.838;2022-08-21T13:10:26;100724.44;;;26.71;22.58
68456;BME280;55437;55.046;38.838;2022-08-21T13:12:58;100729.69;;;26.71;22.59
68456;BME280;55437;55.046;38.838;2022-08-21T13:15:44;100725.13;;;26.73;22.37
68456;BME280;55437;55.046;38.838;2022-08-21T13:18:23;100730.38;;;26.64;22.24
68456;BME280;55437;55.046;38.838;2022-08-21T13:20:50;100726.22;;;26.71;22.22
68456;BME280;55437;55.046;38.838;2022-08-21T13:23:23;100723.88;;;26.68;22.19
68456;BME280;55437;55.046;38.838;2022-08-21T13:25:51;100731.50;;;26.71;22.04
68456;BME280;55437;55.046;38.838;2022-08-21T13:28:17;100727.84;;;26.62;21.45
68456;BME280;55437;55.046;38.838;2022-08-21T13:30:49;100721.50;;;26.65;21.49
68456;BME280;55437;55.046;38.838;2022-08-21T13:33:18;100722.09;;;26.68;21.36
68456;BME280;55437;55.046;38.838;2022-08-21T13:35:56;100719.81;;;26.64;21.24
68456;BME280;55437;55.046;38.838;2022-08-21T13:38:27;100717.69;;;26.58;21.23
68456;BME280;55437;55.046;38.838;2022-08-21T13:40:56;100713.97;;;26.60;21.44
68456;BME280;55437;55.046;38.838;2022-08-21T13:43:32;100711.22;;;26.62;21.58
68456;BME280;55437;55.046;38.838;2022-08-21T13:45:59;100709.28;;;26.64;21.74
68456;BME280;55437;55.046;38.838;2022-08-21T13:48:30;100709.72;;;26.69;21.48
68456;BME280;55437;55.046;38.838;2022-08-21T13:50:58;100708.31;;;26.65;21.15
68456;BME280;55437;55.046;38.838;2022-08-21T13:53:35;100699.72;;;26.63;20.89
68456;BME280;55437;55.046;38.838;2022-08-21T13:56:03;100706.53;;;26.65;21.32
68456;BME280;55437;55.046;38.838;2022-08-21T13:58:46;100703.78;;;26.67;21.61
68456;BME280;55437;55.046;38.838;2022-08-21T14:01:23;100708.44;;;26.63;21.93
68456;BME280;55437;55.046;38.838;2022-08-21T14:03:52;100709.78;;;26.58;22.04
68456;BME280;55437;55.046;38.838;2022-08-21T14:10:12;100699.47;;;26.45;22.49
68456;BME280;55437;55.046;38.838;2022-08-21T14:12:51;100700.13;;;26.37;22.98
68456;BME280;55437;55.046;38.838;2022-08-21T14:15:23;100702.44;;;26.31;23.38
68456;BME280;55437;55.046;38.838;2022-08-21T14:17:50;100709.84;;;26.26;23.23